Time;durP1;ratioP1;P1;durP2;ratioP2;P2;SDS_P1;SDS_P2;PMS_P1;PMS_P2;Temp;Humidity;BMP_temperature;BMP_pressure;BME280_temperature;BME280_humidity;BME280_pressure;Samples;Min_cycle;Max_cycle;Signal;HPM_P1;HPM_P2
2022/05/22 00:01:23;;;;;;;;;;;;;;;33.29;21.94;100826.69;4413345;32;20016;-69
2022/05/22 00:03:50;;;;;;;;;;;;;;;33.18;21.96;100818.41;4414997;32;19992;-69
2022/05/22 00:06:16;;;;;;;;;;;;;;;33.12;22.03;100823.72;4414208;32;19966;-69
2022/05/22 00:08:41;;;;;;;;;;;;;;;33.06;22.17;100819.47;4417137;32;19997;-69
2022/05/22 00:11:07;;;;;;;;;;;;;;;33.19;22.09;100816.28;4413378;32;19973;-69
2022/05/22 00:13:32;;;;;;;;;;;;;;;33.26;22.00;100812.53;4415773;32;20260;-69
2022/05/22 00:16:36;;;;;;;;;;;;;;;33.23;21.89;100808.66;4416656;32;19953;-69
2022/05/22 00:18:43;;;;;;;;;;;;;;;33.24;21.86;100815.25;4415149;32;20923;-69
2022/05/22 00:21:09;;;;;;;;;;;;;;;33.20;21.91;100812.78;4415433;32;20006;-69
2022/05/22 00:23:35;;;;;;;;;;;;;;;32.94;22.11;100815.50;4415382;32;20424;-69
2022/05/22 00:26:00;;;;;;;;;;;;;;;32.87;22.18;100808.34;4413960;32;19961;-69
2022/05/22 00:28:26;;;;;;;;;;;;;;;33.13;22.03;100809.91;4413109;32;19997;-69
2022/05/22 00:30:51;;;;;;;;;;;;;;;33.08;21.99;100802.16;4415522;32;20377;-69
2022/05/22 00:33:17;;;;;;;;;;;;;;;32.71;22.32;100801.06;4412617;32;19958;-69
2022/05/22 00:35:43;;;;;;;;;;;;;;;33.01;22.12;100789.19;4415879;32;20006;-69
2022/05/22 00:38:08;;;;;;;;;;;;;;;32.78;22.50;100796.53;4411554;32;20018;-69
2022/05/22 00:40:34;;;;;;;;;;;;;;;32.76;22.43;100791.28;4414758;32;20022;-69
2022/05/22 00:43:00;;;;;;;;;;;;;;;32.69;22.35;100783.38;4415914;32;20437;-69
2022/05/22 00:45:26;;;;;;;;;;;;;;;32.98;22.09;100777.94;4418082;32;19968;-69
2022/05/22 00:47:53;;;;;;;;;;;;;;;32.97;21.96;100770.59;4414643;32;19989;-69
2022/05/22 00:50:20;;;;;;;;;;;;;;;32.97;22.12;100776.41;4412285;32;20068;-69
2022/05/22 00:52:49;;;;;;;;;;;;;;;33.00;22.15;100769.41;4415764;32;20511;-69
2022/05/22 00:55:16;;;;;;;;;;;;;;;33.02;22.10;100766.63;4414684;32;20007;-69
2022/05/22 00:57:51;;;;;;;;;;;;;;;32.98;22.12;100763.38;4414597;32;19992;-69
2022/05/22 01:00:18;;;;;;;;;;;;;;;32.92;22.24;100766.53;4412271;32;20640;-69
2022/05/22 01:05:29;;;;;;;;;;;;;;;32.86;22.24;100763.09;4416463;32;20000;-69
2022/05/22 01:07:57;;;;;;;;;;;;;;;32.70;22.48;100770.34;4412034;32;20759;-69
2022/05/22 01:10:28;;;;;;;;;;;;;;;32.63;22.36;100760.28;4414338;32;20065;-70
2022/05/22 01:12:53;;;;;;;;;;;;;;;32.61;22.41;100762.25;4412476;32;20100;-70
2022/05/22 01:15:19;;;;;;;;;;;;;;;32.46;22.67;100754.38;4414939;32;20309;-69
2022/05/22 01:17:46;;;;;;;;;;;;;;;32.55;22.61;100758.81;4414627;32;20449;-69
2022/05/22 01:20:13;;;;;;;;;;;;;;;32.78;22.25;100753.56;4411873;32;20493;-69
2022/05/22 01:22:38;;;;;;;;;;;;;;;32.79;22.27;100749.28;4414172;32;20362;-70
2022/05/22 01:25:05;;;;;;;;;;;;;;;32.70;22.38;100752.84;4415679;32;20004;-69
2022/05/22 01:27:31;;;;;;;;;;;;;;;32.60;22.37;100743.22;4411062;32;20035;-69
2022/05/22 01:30:16;;;;;;;;;;;;;;;32.84;22.13;100742.47;4416413;32;19984;-69
2022/05/22 01:32:44;;;;;;;;;;;;;;;32.72;22.09;100734.78;4412895;32;20017;-69
2022/05/22 01:35:11;;;;;;;;;;;;;;;32.78;22.13;100729.47;4412956;32;19982;-69
2022/05/22 01:37:36;;;;;;;;;;;;;;;32.61;22.13;100730.97;4412484;32;20037;-69
2022/05/22 01:40:02;;;;;;;;;;;;;;;32.03;22.63;100714.00;4417155;32;20044;-69
2022/05/22 01:42:29;;;;;;;;;;;;;;;31.89;22.66;100718.56;4413338;32;19997;-69
2022/05/22 01:44:54;;;;;;;;;;;;;;;32.11;22.46;100703.09;4413801;32;19989;-69
2022/05/22 01:47:20;;;;;;;;;;;;;;;32.25;22.15;100700.69;4414826;32;19997;-69
2022/05/22 01:49:45;;;;;;;;;;;;;;;31.24;23.34;100708.03;4416428;32;20007;-69
2022/05/22 01:52:11;;;;;;;;;;;;;;;31.50;23.10;100695.22;4411749;32;20005;-69
2022/05/22 01:54:36;;;;;;;;;;;;;;;30.98;23.55;100702.63;4410779;32;20291;-69
2022/05/22 01:57:02;;;;;;;;;;;;;;;31.26;23.29;100701.63;4411616;32;20402;-69
2022/05/22 01:59:28;;;;;;;;;;;;;;;32.00;22.52;100697.72;4415352;32;20499;-69
2022/05/22 02:01:53;;;;;;;;;;;;;;;31.98;22.36;100696.75;4414803;32;20144;-69
2022/05/22 02:04:20;;;;;;;;;;;;;;;31.48;22.99;100687.06;4413495;32;19961;-69
2022/05/22 02:09:31;;;;;;;;;;;;;;;30.87;23.77;100684.81;4411750;32;19961;-69
2022/05/22 02:11:57;;;;;;;;;;;;;;;31.01;23.41;100689.06;4411135;32;19953;-69
2022/05/22 02:14:22;;;;;;;;;;;;;;;31.59;22.88;100686.62;4413525;32;19989;-69
2022/05/22 02:16:48;;;;;;;;;;;;;;;31.72;22.73;100686.38;4413888;32;20203;-69
2022/05/22 02:19:13;;;;;;;;;;;;;;;31.89;22.52;100679.94;4413748;32;20391;-69
2022/05/22 02:21:39;;;;;;;;;;;;;;;32.13;22.25;100679.22;4412621;32;19997;-69
2022/05/22 02:24:04;;;;;;;;;;;;;;;32.15;21.88;100679.41;4412748;32;20012;-69
2022/05/22 02:26:30;;;;;;;;;;;;;;;32.35;21.82;100664.53;4415505;32;20389;-69
2022/05/22 02:28:55;;;;;;;;;;;;;;;32.53;21.66;100668.28;4413583;32;20483;-69
2022/05/22 02:31:21;;;;;;;;;;;;;;;32.68;21.50;100659.44;4410909;32;20035;-69
2022/05/22 02:33:47;;;;;;;;;;;;;;;32.56;21.58;100653.31;4415910;32;20039;-69
2022/05/22 02:36:14;;;;;;;;;;;;;;;32.37;21.57;100652.31;4414846;32;20361;-69
2022/05/22 02:38:40;;;;;;;;;;;;;;;32.54;21.55;100661.88;4413696;32;20066;-69
2022/05/22 02:41:10;;;;;;;;;;;;;;;32.41;21.49;100656.34;4412730;32;19991;-69
2022/05/22 02:43:35;;;;;;;;;;;;;;;32.32;21.67;100647.44;4414215;32;20368;-69
2022/05/22 02:46:01;;;;;;;;;;;;;;;32.55;21.49;100654.66;4415902;32;19978;-69
2022/05/22 02:48:26;;;;;;;;;;;;;;;31.81;22.10;100644.25;4414693;32;19961;-69
2022/05/22 02:50:52;;;;;;;;;;;;;;;32.02;21.95;100651.31;4413644;32;19958;-69
2022/05/22 02:53:18;;;;;;;;;;;;;;;32.20;21.64;100644.22;4417421;32;19969;-69
2022/05/22 02:55:44;;;;;;;;;;;;;;;31.58;22.25;100638.53;4414804;32;19976;-69
2022/05/22 02:58:10;;;;;;;;;;;;;;;32.18;21.68;100632.38;4415418;32;20044;-69
2022/05/22 03:00:36;;;;;;;;;;;;;;;31.60;22.38;100632.88;4415336;32;20000;-69
2022/05/22 03:03:02;;;;;;;;;;;;;;;31.53;22.53;100638.75;4414768;32;20161;-69
2022/05/22 03:06:37;;;;;;;;;;;;;;;31.61;22.22;100619.91;4414190;32;20437;-69
2022/05/22 03:08:16;;;;;;;;;;;;;;;31.19;22.82;100624.69;4417324;32;20692;-69
2022/05/22 03:10:45;;;;;;;;;;;;;;;31.50;22.72;100623.25;4417534;32;20000;-69
2022/05/22 03:13:13;;;;;;;;;;;;;;;31.54;22.71;100617.03;4417143;32;20024;-69
2022/05/22 03:15:39;;;;;;;;;;;;;;;31.51;22.56;100621.13;4417432;32;20031;-69
2022/05/22 03:18:05;;;;;;;;;;;;;;;31.72;22.53;100622.34;4417951;32;20038;-69
2022/05/22 03:20:31;;;;;;;;;;;;;;;31.18;22.98;100625.25;4417046;32;19964;-69
2022/05/22 03:22:58;;;;;;;;;;;;;;;30.81;23.63;100618.94;4405565;32;20645;-69
2022/05/22 03:25:24;;;;;;;;;;;;;;;30.83;23.53;100616.22;4414078;32;20010;-69
2022/05/22 03:27:49;;;;;;;;;;;;;;;30.61;23.89;100610.41;4415346;32;19984;-69
2022/05/22 03:30:15;;;;;;;;;;;;;;;30.55;23.86;100606.94;4415286;32;20489;-69
2022/05/22 03:32:40;;;;;;;;;;;;;;;30.80;23.51;100602.13;4414559;32;19961;-69
2022/05/22 03:35:06;;;;;;;;;;;;;;;30.29;23.96;100602.31;4414774;32;20426;-69
2022/05/22 03:37:31;;;;;;;;;;;;;;;30.88;23.42;100604.97;4414307;32;19953;-69
2022/05/22 03:39:58;;;;;;;;;;;;;;;30.84;23.40;100588.72;4419380;32;19989;-69
2022/05/22 03:42:24;;;;;;;;;;;;;;;30.77;23.54;100601.12;4415579;32;21241;-69
2022/05/22 03:44:50;;;;;;;;;;;;;;;30.90;23.23;100605.19;4417169;32;19985;-69
2022/05/22 03:47:15;;;;;;;;;;;;;;;31.72;22.55;100612.88;4417989;32;20012;-69
2022/05/22 03:49:41;;;;;;;;;;;;;;;31.79;22.37;100606.22;4413305;32;19950;-69
2022/05/22 03:52:08;;;;;;;;;;;;;;;32.12;22.01;100596.91;4413822;32;19998;-69
2022/05/22 03:54:33;;;;;;;;;;;;;;;32.25;21.92;100595.84;4416459;32;19961;-69
2022/05/22 03:56:59;;;;;;;;;;;;;;;32.07;22.08;100595.03;4414805;32;20799;-71
2022/05/22 03:59:25;;;;;;;;;;;;;;;32.09;22.08;100589.34;4414512;32;19988;-69
2022/05/22 04:01:51;;;;;;;;;;;;;;;32.12;21.93;100581.59;4416205;32;20326;-69
2022/05/22 04:04:16;;;;;;;;;;;;;;;32.14;21.91;100587.56;4416496;32;20035;-70
2022/05/22 04:06:42;;;;;;;;;;;;;;;31.82;22.17;100573.06;4417349;32;19958;-70
2022/05/22 04:09:08;;;;;;;;;;;;;;;31.97;22.22;100578.78;4414808;32;20022;-70
2022/05/22 04:11:34;;;;;;;;;;;;;;;31.81;22.23;100572.28;4416305;32;20001;-70
2022/05/22 04:14:02;;;;;;;;;;;;;;;32.28;21.78;100577.19;4416645;32;19985;-70
2022/05/22 04:16:27;;;;;;;;;;;;;;;31.80;22.26;100567.81;4416143;32;20074;-70
2022/05/22 04:18:53;;;;;;;;;;;;;;;31.91;22.11;100567.34;4414643;32;20004;-70
2022/05/22 04:21:21;;;;;;;;;;;;;;;31.40;22.79;100569.19;4415530;32;19961;-70
2022/05/22 04:26:33;;;;;;;;;;;;;;;31.76;22.46;100566.66;4415342;32;20345;-70
2022/05/22 04:28:59;;;;;;;;;;;;;;;31.36;22.92;100560.88;4416101;32;19957;-70
2022/05/22 04:31:24;;;;;;;;;;;;;;;31.98;22.27;100557.81;4418545;32;20045;-70
2022/05/22 04:33:50;;;;;;;;;;;;;;;32.15;21.90;100569.50;4415974;32;20002;-70
2022/05/22 04:36:15;;;;;;;;;;;;;;;31.58;22.84;100559.97;4416350;32;20039;-70
2022/05/22 04:38:41;;;;;;;;;;;;;;;31.82;22.53;100570.16;4416091;32;20161;-70
2022/05/22 04:41:07;;;;;;;;;;;;;;;31.84;22.58;100579.06;4414640;32;20020;-70
2022/05/22 04:43:33;;;;;;;;;;;;;;;31.41;23.09;100571.50;4414416;32;20009;-70
2022/05/22 04:45:59;;;;;;;;;;;;;;;31.54;22.87;100565.41;4416335;32;19962;-70
2022/05/22 04:48:25;;;;;;;;;;;;;;;31.29;23.14;100564.56;4415455;32;20008;-70
2022/05/22 04:50:51;;;;;;;;;;;;;;;31.34;23.07;100569.41;4414071;32;20603;-70
2022/05/22 04:53:18;;;;;;;;;;;;;;;31.28;22.92;100563.03;4416191;32;20016;-70
2022/05/22 04:55:44;;;;;;;;;;;;;;;31.18;23.07;100570.03;4413955;32;20012;-70
2022/05/22 04:58:12;;;;;;;;;;;;;;;30.62;23.72;100565.50;4414703;32;19962;-70
2022/05/22 05:00:38;;;;;;;;;;;;;;;30.93;23.37;100578.63;4417027;32;19979;-70
2022/05/22 05:03:03;;;;;;;;;;;;;;;30.36;24.12;100572.50;4413874;32;19969;-70
2022/05/22 05:05:29;;;;;;;;;;;;;;;30.30;24.04;100580.63;4412042;32;20024;-70
2022/05/22 05:07:55;;;;;;;;;;;;;;;30.54;23.68;100588.75;4414770;32;20040;-70
2022/05/22 05:10:21;;;;;;;;;;;;;;;30.25;23.93;100578.66;4416860;32;19964;-70
2022/05/22 05:12:47;;;;;;;;;;;;;;;30.58;23.32;100582.53;4413222;32;19972;-70
2022/05/22 05:15:14;;;;;;;;;;;;;;;31.01;22.87;100593.91;4414385;32;19958;-70
2022/05/22 05:17:40;;;;;;;;;;;;;;;31.57;22.25;100581.69;4416930;32;20004;-70
2022/05/22 05:20:06;;;;;;;;;;;;;;;30.91;22.82;100574.75;4414209;32;19957;-70
2022/05/22 05:22:31;;;;;;;;;;;;;;;31.51;22.23;100584.06;4415965;32;19973;-70
2022/05/22 05:24:57;;;;;;;;;;;;;;;32.03;21.45;100577.16;4413078;32;20346;-70
2022/05/22 05:27:23;;;;;;;;;;;;;;;32.08;21.55;100578.31;4416931;32;19984;-70
2022/05/22 05:29:49;;;;;;;;;;;;;;;32.32;20.85;100578.31;4412973;32;20298;-70
2022/05/22 05:32:18;;;;;;;;;;;;;;;32.44;21.11;100578.63;4415655;32;19971;-70
2022/05/22 05:34:43;;;;;;;;;;;;;;;32.79;20.87;100573.63;4412212;32;19970;-70
2022/05/22 05:37:09;;;;;;;;;;;;;;;32.63;21.05;100569.34;4415774;32;20480;-70
2022/05/22 05:39:35;;;;;;;;;;;;;;;32.48;21.00;100564.41;4415771;32;20016;-70
2022/05/22 05:42:01;;;;;;;;;;;;;;;32.70;20.97;100568.50;4416830;32;19986;-70
2022/05/22 05:44:26;;;;;;;;;;;;;;;32.28;21.46;100569.19;4411130;32;20311;-70
2022/05/22 05:46:52;;;;;;;;;;;;;;;32.54;21.23;100562.81;4416951;32;20344;-70
2022/05/22 05:49:18;;;;;;;;;;;;;;;33.00;20.69;100571.12;4414243;32;19997;-70
2022/05/22 05:51:44;;;;;;;;;;;;;;;32.45;21.41;100572.22;4414754;32;20382;-70
2022/05/22 05:54:09;;;;;;;;;;;;;;;32.65;21.23;100576.09;4413896;32;20056;-70
2022/05/22 05:56:37;;;;;;;;;;;;;;;32.81;20.97;100565.84;4416660;32;20359;-70
2022/05/22 05:59:03;;;;;;;;;;;;;;;33.04;21.00;100565.63;4412246;32;20260;-70
2022/05/22 06:01:28;;;;;;;;;;;;;;;33.22;20.99;100546.75;4412774;32;20012;-70
2022/05/22 06:03:53;;;;;;;;;;;;;;;32.70;21.42;100545.16;4414251;32;20051;-70
2022/05/22 06:06:20;;;;;;;;;;;;;;;32.77;21.42;100539.25;4412733;32;20013;-70
2022/05/22 06:08:45;;;;;;;;;;;;;;;32.96;21.13;100532.84;4411887;32;19961;-70
2022/05/22 06:11:11;;;;;;;;;;;;;;;33.01;21.31;100540.56;4413158;32;20009;-70
2022/05/22 06:13:36;;;;;;;;;;;;;;;32.97;21.33;100532.25;4411428;32;20338;-70
2022/05/22 06:16:04;;;;;;;;;;;;;;;32.83;21.46;100533.16;4415337;32;20024;-70
2022/05/22 06:18:29;;;;;;;;;;;;;;;32.47;21.90;100537.44;4411381;32;20012;-70
2022/05/22 06:20:55;;;;;;;;;;;;;;;32.73;21.76;100547.62;4414470;32;19953;-70
2022/05/22 06:23:20;;;;;;;;;;;;;;;33.13;21.35;100533.59;4412697;32;20040;-70
2022/05/22 06:25:46;;;;;;;;;;;;;;;33.55;20.97;100543.00;4420964;32;19997;-70
2022/05/22 06:28:12;;;;;;;;;;;;;;;33.52;21.03;100543.44;4416751;32;19957;-70
2022/05/22 06:30:37;;;;;;;;;;;;;;;33.94;20.76;100549.84;4417135;32;19958;-70
2022/05/22 06:33:07;;;;;;;;;;;;;;;33.83;20.91;100541.59;4417512;32;19984;-70
2022/05/22 06:35:33;;;;;;;;;;;;;;;33.87;20.92;100536.91;4418552;32;20315;-70
2022/05/22 06:37:58;;;;;;;;;;;;;;;34.49;20.36;100535.31;4417532;32;19949;-70
2022/05/22 06:40:24;;;;;;;;;;;;;;;34.58;20.20;100527.94;4417042;32;20000;-70
2022/05/22 06:42:49;;;;;;;;;;;;;;;34.49;20.45;100531.63;4415761;32;20073;-70
2022/05/22 06:45:17;;;;;;;;;;;;;;;35.17;20.01;100537.69;4417697;32;20294;-70
2022/05/22 06:47:43;;;;;;;;;;;;;;;34.86;20.14;100541.84;4414350;32;19965;-70
2022/05/22 06:50:12;;;;;;;;;;;;;;;34.90;20.27;100540.00;4416962;32;19984;-70
2022/05/22 06:52:38;;;;;;;;;;;;;;;35.09;19.85;100525.37;4416168;32;20048;-70
2022/05/22 06:55:04;;;;;;;;;;;;;;;35.20;19.96;100530.62;4415355;32;19995;-70
2022/05/22 06:57:30;;;;;;;;;;;;;;;35.26;20.03;100527.38;4416156;32;19999;-70
2022/05/22 06:59:56;;;;;;;;;;;;;;;34.83;20.41;100522.59;4418461;32;20438;-70
2022/05/22 07:02:23;;;;;;;;;;;;;;;35.03;20.24;100513.22;4416019;32;20428;-70
2022/05/22 07:04:48;;;;;;;;;;;;;;;35.15;20.22;100511.22;4416941;32;19962;-70
2022/05/22 07:07:14;;;;;;;;;;;;;;;34.36;21.01;100524.06;4416469;32;20012;-70
2022/05/22 07:09:39;;;;;;;;;;;;;;;34.62;20.95;100507.78;4416995;32;19992;-70
2022/05/22 07:12:06;;;;;;;;;;;;;;;34.33;21.36;100513.56;4415451;32;21069;-70
2022/05/22 07:14:32;;;;;;;;;;;;;;;34.10;21.48;100513.94;4415332;32;19968;-70
2022/05/22 07:17:00;;;;;;;;;;;;;;;34.54;21.09;100513.78;4416697;32;19962;-70
2022/05/22 07:19:25;;;;;;;;;;;;;;;34.95;20.86;100509.69;4418171;32;19957;-70
2022/05/22 07:21:51;;;;;;;;;;;;;;;35.08;20.56;100512.16;4419286;32;20235;-70
2022/05/22 07:24:17;;;;;;;;;;;;;;;35.43;20.28;100506.75;4411966;32;20003;-70
2022/05/22 07:26:42;;;;;;;;;;;;;;;35.28;20.49;100493.16;4417712;32;20434;-70
2022/05/22 07:29:08;;;;;;;;;;;;;;;34.87;20.89;100506.16;4418819;32;20586;-70
2022/05/22 07:31:34;;;;;;;;;;;;;;;35.46;20.37;100509.19;4419685;32;20382;-70
2022/05/22 07:34:00;;;;;;;;;;;;;;;35.40;20.51;100502.88;4401462;32;20005;-70
2022/05/22 07:36:25;;;;;;;;;;;;;;;35.35;20.59;100500.28;4416821;32;20382;-70
2022/05/22 07:38:51;;;;;;;;;;;;;;;35.21;20.61;100497.03;4414216;32;20016;-70
2022/05/22 07:41:17;;;;;;;;;;;;;;;35.35;20.53;100486.44;4414752;32;20369;-70
2022/05/22 07:43:42;;;;;;;;;;;;;;;35.60;20.29;100495.59;4415183;32;19993;-70
2022/05/22 07:46:08;;;;;;;;;;;;;;;36.51;19.51;100497.06;4414578;32;20554;-70
2022/05/22 07:48:34;;;;;;;;;;;;;;;36.74;19.29;100496.44;4417736;32;19993;-70
2022/05/22 07:51:01;;;;;;;;;;;;;;;36.99;19.07;100502.59;4417525;32;19989;-70
2022/05/22 07:53:27;;;;;;;;;;;;;;;36.94;18.96;100503.69;4414032;32;19996;-70
2022/05/22 07:55:52;;;;;;;;;;;;;;;36.66;19.30;100502.50;4414960;32;20366;-70
2022/05/22 07:58:18;;;;;;;;;;;;;;;36.86;19.19;100506.84;4417940;32;19972;-70
2022/05/22 08:00:44;;;;;;;;;;;;;;;36.22;19.65;100498.59;4416715;32;20251;-70
2022/05/22 08:03:12;;;;;;;;;;;;;;;36.15;19.90;100498.19;4412182;32;20626;-70
2022/05/22 08:05:38;;;;;;;;;;;;;;;36.95;19.21;100487.63;4414472;32;20058;-71
2022/05/22 08:08:04;;;;;;;;;;;;;;;37.85;18.38;100482.69;4416874;32;20436;-71
2022/05/22 08:10:29;;;;;;;;;;;;;;;38.18;17.99;100487.69;4416764;32;21614;-70
2022/05/22 08:12:55;;;;;;;;;;;;;;;38.48;17.74;100487.41;4401363;32;20000;-70
2022/05/22 08:15:23;;;;;;;;;;;;;;;38.98;17.24;100478.72;4414585;32;20004;-70
2022/05/22 08:17:48;;;;;;;;;;;;;;;39.09;17.19;100477.94;4412959;32;19972;-70
2022/05/22 08:20:16;;;;;;;;;;;;;;;37.94;17.94;100472.19;4417218;32;19969;-70
2022/05/22 08:22:44;;;;;;;;;;;;;;;37.13;18.81;100474.94;4415470;32;20011;-70
2022/05/22 08:25:11;;;;;;;;;;;;;;;37.24;18.93;100465.44;4416308;32;20257;-70
2022/05/22 08:27:37;;;;;;;;;;;;;;;38.08;18.07;100470.16;4416071;32;20454;-70
2022/05/22 08:30:03;;;;;;;;;;;;;;;38.21;17.98;100480.53;4417989;32;20010;-70
2022/05/22 08:32:29;;;;;;;;;;;;;;;37.47;18.82;100477.25;4397662;32;20328;-70
2022/05/22 08:34:55;;;;;;;;;;;;;;;38.45;17.89;100473.97;4414203;32;19961;-70
2022/05/22 08:37:21;;;;;;;;;;;;;;;38.46;18.02;100468.88;4416073;32;19985;-70
2022/05/22 08:39:47;;;;;;;;;;;;;;;38.98;17.47;100469.91;4418149;32;20033;-70
2022/05/22 08:42:16;;;;;;;;;;;;;;;38.49;17.91;100483.03;4413224;32;19989;-70
2022/05/22 08:44:42;;;;;;;;;;;;;;;38.54;17.79;100472.31;4413597;32;20583;-70
2022/05/22 08:47:28;;;;;;;;;;;;;;;39.27;17.33;100475.28;4414636;32;19961;-70
2022/05/22 08:49:57;;;;;;;;;;;;;;;38.89;17.63;100476.69;4415225;32;19975;-70
2022/05/22 08:52:43;;;;;;;;;;;;;;;39.44;17.11;100469.69;4415749;32;20185;-70
2022/05/22 08:55:12;;;;;;;;;;;;;;;38.70;17.75;100468.19;4416014;32;19973;-70
2022/05/22 09:00:29;;;;;;;;;;;;;;;38.85;17.72;100458.03;4412446;32;20342;-70
2022/05/22 09:05:34;;;;;;;;;;;;;;;39.28;17.46;100444.41;3949073;32;15798333;-70
2022/05/22 09:13:27;;;;;;;;;;;;;;;38.50;18.19;100433.81;3955042;32;15723405;-70
2022/05/22 09:15:57;;;;;;;;;;;;;;;38.50;18.19;100433.81;4430177;32;20031;-70
2022/05/22 09:26:36;;;;;;;;;;;;;;;37.55;18.79;100427.84;3959361;31;15716418;-69
2022/05/22 09:29:21;;;;;;;;;;;;;;;37.55;18.79;100427.84;4447821;32;20408;-69
2022/05/22 09:32:07;;;;;;;;;;;;;;;36.28;20.07;100420.69;4443661;32;20271;-69
2022/05/22 09:48:36;;;;;;;;;;;;;;;39.65;17.25;100415.63;3951374;32;15724331;-71
2022/05/22 09:53:45;;;;;;;;;;;;;;;39.06;17.75;100401.91;3949736;32;15725607;-71
2022/05/22 09:59:11;;;;;;;;;;;;;;;38.38;18.39;100394.88;3951030;32;15724062;-71
2022/05/22 10:01:38;;;;;;;;;;;;;;;38.38;18.39;100394.88;4429798;32;19988;-70
2022/05/22 10:09:30;;;;;;;;;;;;;;;41.07;16.05;100387.09;3951752;32;15721582;-70
2022/05/22 10:17:29;;;;;;;;;;;;;;;41.79;15.29;100361.00;3950767;32;15722586;-71
2022/05/22 10:20:06;;;;;;;;;;;;;;;40.65;16.16;100370.91;4413573;32;19997;-71
2022/05/22 10:22:51;;;;;;;;;;;;;;;40.21;16.38;100368.59;4424197;32;20342;-71
2022/05/22 10:25:37;;;;;;;;;;;;;;;39.02;17.43;100352.41;4426858;32;19982;-71
2022/05/22 10:30:44;;;;;;;;;;;;;;;41.07;15.75;100345.75;3962373;31;15716102;-70
2022/05/22 10:38:28;;;;;;;;;;;;;;;41.64;14.70;100334.41;3958239;31;15719414;-70
2022/05/22 10:43:42;;;;;;;;;;;;;;;41.76;14.33;100320.19;4431126;32;19976;-70
2022/05/22 10:46:08;;;;;;;;;;;;;;;41.46;14.62;100313.62;4430345;32;20001;-70
2022/05/22 10:48:35;;;;;;;;;;;;;;;41.56;14.50;100320.03;4431810;32;20436;-70
2022/05/22 10:51:09;;;;;;;;;;;;;;;41.30;14.68;100304.03;4431960;32;20380;-71
2022/05/22 10:58:52;;;;;;;;;;;;;;;42.00;14.62;100303.56;3965822;31;15724696;-71
2022/05/22 11:01:19;;;;;;;;;;;;;;;42.00;14.62;100303.56;4442492;32;19957;-71
2022/05/22 11:03:45;;;;;;;;;;;;;;;42.37;14.27;100283.81;4443347;32;19957;-71
2022/05/22 11:06:16;;;;;;;;;;;;;;;42.53;13.96;100289.62;4441568;32;19963;-71
2022/05/22 11:08:46;;;;;;;;;;;;;;;42.77;13.92;100290.66;4443520;32;20236;-71
2022/05/22 11:11:15;;;;;;;;;;;;;;;43.46;13.53;100288.22;4441567;32;20460;-71
2022/05/22 11:13:41;;;;;;;;;;;;;;;43.75;13.25;100293.75;4438404;32;19996;-71
2022/05/22 11:16:26;;;;;;;;;;;;;;;43.21;13.89;100298.34;4442811;32;19997;-71
2022/05/22 11:27:19;;;;;;;;;;;;;;;41.25;15.34;100288.31;3965791;31;15719368;-70
2022/05/22 11:29:52;;;;;;;;;;;;;;;41.25;15.34;100288.31;4439400;32;20371;-70
2022/05/22 11:43:15;;;;;;;;;;;;;;;40.58;15.46;100277.59;3937148;32;15721617;-71
2022/05/22 11:48:36;;;;;;;;;;;;;;;41.14;15.22;100262.69;3960194;31;15716674;-71
2022/05/22 11:51:17;;;;;;;;;;;;;;;41.14;15.22;100262.69;4427431;32;20016;-71
2022/05/22 11:56:30;;;;;;;;;;;;;;;41.16;15.21;100250.19;3950723;32;15722533;-71
2022/05/22 11:59:03;;;;;;;;;;;;;;;42.02;14.58;100260.06;4420124;32;19964;-71
2022/05/22 12:01:38;;;;;;;;;;;;;;;41.94;14.70;100259.72;4433240;32;19972;-71
2022/05/22 12:09:37;;;;;;;;;;;;;;;40.79;15.51;100243.97;3947022;32;15724186;-71
2022/05/22 12:12:11;;;;;;;;;;;;;;;40.79;15.51;100243.97;4427506;32;20346;-71
2022/05/22 12:14:49;;;;;;;;;;;;;;;40.06;15.97;100241.75;4426787;32;20424;-71
2022/05/22 12:19:58;;;;;;;;;;;;;;;41.45;15.13;100241.97;3949833;32;15722569;-71
2022/05/22 12:25:15;;;;;;;;;;;;;;;41.21;15.21;100237.94;4431076;32;19965;-70
2022/05/22 12:27:40;;;;;;;;;;;;;;;41.93;14.58;100239.72;4422403;32;19997;-70
2022/05/22 12:32:46;;;;;;;;;;;;;;;42.25;14.41;100223.34;3948207;32;15734206;-71
2022/05/22 12:35:13;;;;;;;;;;;;;;;42.25;14.41;100223.34;4433452;32;19953;-70
2022/05/22 12:37:42;;;;;;;;;;;;;;;41.52;14.68;100234.19;4416953;32;19989;-71
2022/05/22 12:42:48;;;;;;;;;;;;;;;41.64;15.14;100225.09;3951376;32;15729367;-71
2022/05/22 12:45:14;;;;;;;;;;;;;;;41.64;15.14;100225.09;4434806;32;20556;-71
2022/05/22 12:47:42;;;;;;;;;;;;;;;40.66;15.74;100235.97;4433910;32;19994;-71
2022/05/22 12:50:08;;;;;;;;;;;;;;;40.64;15.88;100215.19;4434556;32;20008;-71
2022/05/22 12:52:34;;;;;;;;;;;;;;;40.74;15.81;100219.41;4431942;32;20034;-71
2022/05/22 12:55:09;;;;;;;;;;;;;;;40.59;15.72;100228.22;4432945;32;20009;-71
2022/05/22 12:57:35;;;;;;;;;;;;;;;40.34;16.14;100216.66;4431638;32;19997;-72
2022/05/22 13:00:12;;;;;;;;;;;;;;;41.15;15.42;100204.38;4433891;32;20023;-71
2022/05/22 13:02:41;;;;;;;;;;;;;;;40.98;15.62;100196.19;4432868;32;19988;-73
2022/05/22 13:05:16;;;;;;;;;;;;;;;42.07;14.85;100196.72;4414072;32;19964;-71
2022/05/22 13:07:42;;;;;;;;;;;;;;;41.59;15.26;100193.84;4431124;32;19965;-71
2022/05/22 13:10:27;;;;;;;;;;;;;;;41.65;15.07;100185.25;4423628;32;20214;-71
2022/05/22 13:12:56;;;;;;;;;;;;;;;41.82;15.05;100187.47;4431740;32;19965;-71
2022/05/22 13:15:23;;;;;;;;;;;;;;;42.35;14.78;100167.56;4433372;32;19949;-71
2022/05/22 13:17:51;;;;;;;;;;;;;;;41.27;15.35;100172.47;4435294;32;20077;-71
2022/05/22 13:23:10;;;;;;;;;;;;;;;41.21;15.65;100158.19;3941279;32;15723500;-71
2022/05/22 13:33:40;;;;;;;;;;;;;;;42.82;14.35;100142.09;3949626;32;15733598;-71
2022/05/22 13:36:13;;;;;;;;;;;;;;;42.82;14.35;100142.09;4416762;32;20338;-71
2022/05/22 13:38:39;;;;;;;;;;;;;;;41.92;14.74;100146.53;4428808;32;19983;-71
2022/05/22 13:46:41;;;;;;;;;;;;;;;44.96;12.94;100135.41;3960544;31;15723373;-71
2022/05/22 13:57:05;;;;;;;;;;;;;;;44.91;12.95;100121.87;3950668;32;15726452;-71
2022/05/22 13:59:32;;;;;;;;;;;;;;;45.21;12.64;100122.75;4426434;32;19957;-71
2022/05/22 14:02:07;;;;;;;;;;;;;;;45.35;12.50;100117.97;4428324;32;20006;-71
2022/05/22 14:04:36;;;;;;;;;;;;;;;44.36;12.82;100131.31;4426231;32;20257;-72
2022/05/22 14:07:05;;;;;;;;;;;;;;;44.77;12.71;100101.44;4425549;32;19977;-72
2022/05/22 14:09:34;;;;;;;;;;;;;;;43.60;13.49;100113.88;4426680;32;20660;-71
2022/05/22 14:11:59;;;;;;;;;;;;;;;44.48;13.07;100108.69;4423705;32;19954;-71
2022/05/22 14:14:30;;;;;;;;;;;;;;;44.88;12.89;100103.25;4430385;32;19964;-70
2022/05/22 14:16:57;;;;;;;;;;;;;;;43.73;13.40;100106.91;4426810;32;19979;-71
2022/05/22 14:19:42;;;;;;;;;;;;;;;43.03;14.01;100102.94;4425448;32;21102;-70
2022/05/22 14:22:13;;;;;;;;;;;;;;;42.56;14.36;100087.03;4427837;32;20626;-72
2022/05/22 14:24:54;;;;;;;;;;;;;;;44.20;13.09;100077.37;4427373;32;19954;-71
2022/05/22 14:30:16;;;;;;;;;;;;;;;45.17;12.67;100084.00;3952289;32;15724623;-71
2022/05/22 14:32:45;;;;;;;;;;;;;;;45.17;12.67;100084.00;4426771;32;20351;-71
2022/05/22 14:35:14;;;;;;;;;;;;;;;43.88;13.55;100076.31;4430215;32;20257;-70
2022/05/22 14:37:41;;;;;;;;;;;;;;;43.97;13.41;100067.00;4426493;32;19991;-71
2022/05/22 14:40:16;;;;;;;;;;;;;;;44.76;12.83;100073.94;4427230;32;19957;-71
2022/05/22 14:42:43;;;;;;;;;;;;;;;44.56;12.95;100066.63;4426962;32;19983;-72
2022/05/22 14:48:01;;;;;;;;;;;;;;;44.95;13.11;100057.41;3950968;32;15734561;-72
2022/05/22 14:50:27;;;;;;;;;;;;;;;43.40;13.78;100065.75;4429687;32;19957;-72
2022/05/22 14:52:57;;;;;;;;;;;;;;;43.52;13.83;100057.31;4426871;32;20067;-71
2022/05/22 14:55:42;;;;;;;;;;;;;;;44.84;12.95;100040.75;4427101;32;20000;-72
2022/05/22 15:00:44;;;;;;;;;;;;;;;45.52;12.59;100045.59;3951479;32;15730039;-71
2022/05/22 15:03:29;;;;;;;;;;;;;;;45.52;12.59;100045.59;4426773;32;19968;-71